Airport View

Enter AWOS ICAO identifier for current METAR.

ex. KFNL

KFXE 121153Z 00000KT 10SM FEW033 BKN060 22/19 A2996 RMK AO2 SLP147 T02170189 10222 20194 53006

12 Nov 2019 12:05

Phone: 954-772-2537

Other Area AWOS: KPMP - KFLL - KBCT - KHWO

TAF KFXE 121120Z 1212/1312 VRB03KT P6SM FEW050 BKN060 FM121500 16008KT P6SM SCT035 SCT250 FM122300 20006KT P6SM FEW050 SCT110 FM130300 VRB03KT P6SM FEW100 FM131000 33006KT P6SM FEW035 SCT100